Time,TemperatureF,DewpointF,PressureIn,WindDirection,WindDirectionDegrees,WindSpeedMPH,WindSpeedGustMPH,Humidity,HourlyPrecipIn,Conditions,Clouds,dailyrainin,SoftwareType,DateUTC
2013-04-20 00:02:00,43.3,28.6,29.69,West,271,1.0,1.0,56,0.00,,,0.00,Wunderground v.1.15,2013-04-20 04:02:00,
2013-04-20 00:07:00,43.3,28.6,29.69,WSW,258,1.0,1.0,56,0.00,,,0.00,Wunderground v.1.15,2013-04-20 04:07:00,
2013-04-20 00:12:00,43.3,28.2,29.69,West,270,2.0,2.0,55,0.00,,,0.00,Wunderground v.1.15,2013-04-20 04:12:00,
2013-04-20 00:22:00,43.5,28.4,29.70,West,263,1.0,1.0,55,0.00,,,0.00,Wunderground v.1.15,2013-04-20 04:22:00,
2013-04-20 00:32:00,43.3,28.6,29.70,WSW,250,1.0,1.0,56,0.00,,,0.00,Wunderground v.1.15,2013-04-20 04:32:00,
2013-04-20 00:37:00,43.3,28.6,29.70,SW,232,1.0,2.0,56,0.00,,,0.00,Wunderground v.1.15,2013-04-20 04:37:00,
2013-04-20 00:47:00,43.1,28.5,29.70,WSW,258,4.0,6.0,56,0.00,,,0.00,Wunderground v.1.15,2013-04-20 04:47:00,
2013-04-20 00:52:00,42.9,28.7,29.70,WNW,284,4.0,4.0,57,0.00,,,0.00,Wunderground v.1.15,2013-04-20 04:52:00,
2013-04-20 01:02:00,42.8,28.6,29.70,WNW,282,3.0,3.0,57,0.00,,,0.00,Wunderground v.1.15,2013-04-20 05:02:00,
2013-04-20 01:07:00,42.6,28.4,29.70,WSW,246,2.0,3.0,57,0.00,,,0.00,Wunderground v.1.15,2013-04-20 05:07:00,
2013-04-20 01:12:00,42.6,28.4,29.70,WSW,250,2.0,2.0,57,0.00,,,0.00,Wunderground v.1.15,2013-04-20 05:12:00,
2013-04-20 01:22:00,42.5,28.8,29.70,WSW,254,1.0,1.0,58,0.00,,,0.00,Wunderground v.1.15,2013-04-20 05:22:00,
2013-04-20 01:32:00,42.3,28.1,29.69,SW,220,2.0,2.0,57,0.00,,,0.00,Wunderground v.1.15,2013-04-20 05:32:00,
2013-04-20 01:37:00,42.3,28.6,29.69,West,265,2.0,2.0,58,0.00,,,0.00,Wunderground v.1.15,2013-04-20 05:37:00,
2013-04-20 01:47:00,42.3,28.6,29.69,WSW,244,1.0,1.0,58,0.00,,,0.00,Wunderground v.1.15,2013-04-20 05:47:00,
2013-04-20 01:53:00,42.3,28.6,29.69,SW,224,1.0,2.0,58,0.00,,,0.00,Wunderground v.1.15,2013-04-20 05:53:00,
2013-04-20 02:02:00,42.2,28.0,29.69,WSW,243,2.0,2.0,57,0.00,,,0.00,Wunderground v.1.15,2013-04-20 06:02:00,
2013-04-20 02:08:00,42.2,27.6,29.69,WSW,237,2.0,2.0,56,0.00,,,0.00,Wunderground v.1.15,2013-04-20 06:08:00,
2013-04-20 02:17:00,42.3,27.7,29.69,SSW,212,2.0,2.0,56,0.00,,,0.00,Wunderground v.1.15,2013-04-20 06:17:00,
2013-04-20 02:23:00,42.3,27.7,29.69,WNW,288,1.0,2.0,56,0.00,,,0.00,Wunderground v.1.15,2013-04-20 06:23:00,
2013-04-20 02:32:00,42.3,27.7,29.69,WSW,246,1.0,2.0,56,0.00,,,0.00,Wunderground v.1.15,2013-04-20 06:32:00,
2013-04-20 02:37:00,42.3,27.3,29.69,West,260,1.0,3.0,55,0.00,,,0.00,Wunderground v.1.15,2013-04-20 06:37:00,
2013-04-20 02:47:00,42.3,26.8,29.68,NW,308,1.0,1.0,54,0.00,,,0.00,Wunderground v.1.15,2013-04-20 06:47:00,
2013-04-20 02:53:00,42.5,26.6,29.68,WSW,243,2.0,2.0,53,0.00,,,0.00,Wunderground v.1.15,2013-04-20 06:53:00,
2013-04-20 03:02:00,42.6,26.2,29.69,WSW,253,3.0,3.0,52,0.00,,,0.00,Wunderground v.1.15,2013-04-20 07:02:00,
2013-04-20 03:08:00,42.6,26.2,29.69,WSW,256,2.0,5.0,52,0.00,,,0.00,Wunderground v.1.15,2013-04-20 07:08:00,
2013-04-20 03:17:00,42.6,26.6,29.69,West,260,1.0,2.0,53,0.00,,,0.00,Wunderground v.1.15,2013-04-20 07:17:00,
2013-04-20 03:23:00,42.6,26.6,29.69,WSW,248,1.0,8.0,53,0.00,,,0.00,Wunderground v.1.15,2013-04-20 07:23:00,
2013-04-20 03:32:00,42.3,27.3,29.69,SW,230,4.0,8.0,55,0.00,,,0.00,Wunderground v.1.15,2013-04-20 07:32:00,
2013-04-20 03:38:00,42.1,27.5,29.69,SW,233,3.0,5.0,56,0.00,,,0.00,Wunderground v.1.15,2013-04-20 07:38:00,
2013-04-20 03:47:00,41.6,27.5,29.69,SW,217,2.0,2.0,57,0.00,,,0.00,Wunderground v.1.15,2013-04-20 07:47:00,
2013-04-20 03:53:00,41.3,27.6,29.69,South,176,2.0,2.0,58,0.00,,,0.00,Wunderground v.1.15,2013-04-20 07:53:00,
2013-04-20 04:02:00,40.9,27.7,29.70,SW,233,1.0,1.0,59,0.00,,,0.00,Wunderground v.1.15,2013-04-20 08:02:00,
2013-04-20 04:07:00,40.8,28.0,29.70,WSW,240,1.0,3.0,60,0.00,,,0.00,Wunderground v.1.15,2013-04-20 08:07:00,
2013-04-20 04:17:00,40.5,28.1,29.70,North,357,3.0,5.0,61,0.00,,,0.00,Wunderground v.1.15,2013-04-20 08:17:00,
2013-04-20 04:22:00,40.5,28.5,29.70,WSW,237,4.0,4.0,62,0.00,,,0.00,Wunderground v.1.15,2013-04-20 08:22:00,
2013-04-20 04:32:00,40.2,29.0,29.70,SW,233,4.0,4.0,64,0.00,,,0.00,Wunderground v.1.15,2013-04-20 08:32:00,
2013-04-20 04:37:00,40.1,29.3,29.70,SW,233,3.0,5.0,65,0.00,,,0.00,Wunderground v.1.15,2013-04-20 08:37:00,
2013-04-20 04:47:00,39.6,29.2,29.71,NNE,30,3.0,3.0,66,0.00,,,0.00,Wunderground v.1.15,2013-04-20 08:47:00,
2013-04-20 04:52:00,39.5,29.1,29.71,SW,224,3.0,5.0,66,0.00,,,0.00,Wunderground v.1.15,2013-04-20 08:52:00,
2013-04-20 05:02:00,39.2,29.2,29.71,NW,318,2.0,10.0,67,0.00,,,0.00,Wunderground v.1.15,2013-04-20 09:02:00,
2013-04-20 05:08:00,39.2,29.2,29.71,WSW,240,3.0,10.0,67,0.00,,,0.00,Wunderground v.1.15,2013-04-20 09:08:00,
2013-04-20 05:17:00,39.1,29.1,29.72,SW,222,2.0,3.0,67,0.00,,,0.00,Wunderground v.1.15,2013-04-20 09:17:00,
2013-04-20 05:23:00,38.9,28.9,29.72,SW,224,2.0,5.0,67,0.00,,,0.00,Wunderground v.1.15,2013-04-20 09:23:00,
2013-04-20 05:32:00,38.9,28.5,29.72,WSW,248,2.0,5.0,66,0.00,,,0.00,Wunderground v.1.15,2013-04-20 09:32:00,
2013-04-20 05:38:00,38.9,28.5,29.72,SW,227,2.0,3.0,66,0.00,,,0.00,Wunderground v.1.15,2013-04-20 09:38:00,
2013-04-20 05:47:00,38.9,28.1,29.73,WSW,243,3.0,3.0,65,0.00,,,0.00,Wunderground v.1.15,2013-04-20 09:47:00,
2013-04-20 05:53:00,39.1,28.3,29.73,SW,236,2.0,2.0,65,0.00,,,0.00,Wunderground v.1.15,2013-04-20 09:53:00,
2013-04-20 06:02:00,39.1,28.3,29.73,WSW,237,2.0,2.0,65,0.00,,,0.00,Wunderground v.1.15,2013-04-20 10:02:00,
2013-04-20 06:08:00,39.1,28.3,29.73,SSW,206,2.0,2.0,65,0.00,,,0.00,Wunderground v.1.15,2013-04-20 10:08:00,
2013-04-20 06:17:00,39.2,28.0,29.73,WSW,257,2.0,4.0,64,0.00,,,0.00,Wunderground v.1.15,2013-04-20 10:17:00,
2013-04-20 06:23:00,39.3,28.1,29.73,SW,227,3.0,4.0,64,0.00,,,0.00,Wunderground v.1.15,2013-04-20 10:23:00,
2013-04-20 06:32:00,39.5,28.3,29.74,WSW,254,2.0,5.0,64,0.00,,,0.00,Wunderground v.1.15,2013-04-20 10:32:00,
2013-04-20 06:38:00,39.6,28.4,29.74,SW,220,2.0,2.0,64,0.00,,,0.00,Wunderground v.1.15,2013-04-20 10:38:00,
2013-04-20 06:47:00,38.5,30.3,29.75,SW,233,3.0,4.0,72,0.00,,,0.00,Wunderground v.1.15,2013-04-20 10:47:00,
2013-04-20 06:53:00,37.9,30.7,29.75,WSW,239,2.0,5.0,75,0.00,,,0.00,Wunderground v.1.15,2013-04-20 10:53:00,
2013-04-20 07:02:00,37.6,30.4,29.76,WNW,289,2.0,2.0,75,0.00,,,0.00,Wunderground v.1.15,2013-04-20 11:02:00,
2013-04-20 07:07:00,37.8,30.3,29.76,West,264,2.0,2.0,74,0.00,,,0.00,Wunderground v.1.15,2013-04-20 11:07:00,
2013-04-20 07:17:00,38.0,30.4,29.76,WSW,241,2.0,4.0,74,0.00,,,0.00,Wunderground v.1.15,2013-04-20 11:17:00,
2013-04-20 07:22:00,38.3,30.7,29.76,SSW,206,1.0,1.0,74,0.00,,,0.00,Wunderground v.1.15,2013-04-20 11:22:00,
2013-04-20 07:32:00,38.5,30.9,29.77,SW,234,2.0,2.0,74,0.00,,,0.00,Wunderground v.1.15,2013-04-20 11:32:00,
2013-04-20 07:37:00,38.6,30.7,29.77,WSW,239,2.0,2.0,73,0.00,,,0.00,Wunderground v.1.15,2013-04-20 11:37:00,
2013-04-20 07:47:00,38.6,30.7,29.77,SSW,196,2.0,7.0,73,0.00,,,0.00,Wunderground v.1.15,2013-04-20 11:47:00,
2013-04-20 07:52:00,39.1,31.2,29.77,SW,227,1.0,2.0,73,0.00,,,0.00,Wunderground v.1.15,2013-04-20 11:52:00,
2013-04-20 08:02:00,39.9,30.5,29.77,NW,311,2.0,2.0,69,0.00,,,0.00,Wunderground v.1.15,2013-04-20 12:02:00,
2013-04-20 08:12:00,39.8,30.5,29.77,WNW,285,2.0,5.0,69,0.00,,,0.00,Wunderground v.1.15,2013-04-20 12:12:00,
2013-04-20 08:22:00,35.6,29.7,29.80,West,267,2.0,2.0,79,0.08,,,0.02,Wunderground v.1.15,2013-04-20 12:22:00,
2013-04-20 08:32:00,36.3,31.3,29.79,WSW,243,1.0,7.0,82,0.00,,,0.02,Wunderground v.1.15,2013-04-20 12:32:00,
2013-04-20 08:38:00,36.8,31.8,29.79,SSW,205,1.0,7.0,82,0.00,,,0.02,Wunderground v.1.15,2013-04-20 12:38:00,
2013-04-20 08:47:00,37.3,31.4,29.79,WSW,246,1.0,6.0,79,0.00,,,0.02,Wunderground v.1.15,2013-04-20 12:47:00,
2013-04-20 08:52:00,38.0,31.4,29.79,SW,226,3.0,5.0,77,0.00,,,0.02,Wunderground v.1.15,2013-04-20 12:52:00,
2013-04-20 09:02:00,38.5,29.9,29.80,WSW,243,3.0,3.0,71,0.00,,,0.02,Wunderground v.1.15,2013-04-20 13:02:00,
2013-04-20 09:07:00,38.9,28.9,29.80,WSW,240,3.0,3.0,67,0.00,,,0.03,Wunderground v.1.15,2013-04-20 13:07:00,
2013-04-20 09:17:00,40.3,29.1,29.80,SW,215,2.0,6.0,64,0.00,,,0.03,Wunderground v.1.15,2013-04-20 13:17:00,
2013-04-20 09:22:00,40.6,28.2,29.80,WSW,253,2.0,4.0,61,0.00,,,0.03,Wunderground v.1.15,2013-04-20 13:22:00,
2013-04-20 09:32:00,40.3,27.5,29.82,WSW,248,3.0,3.0,60,0.00,,,0.03,Wunderground v.1.15,2013-04-20 13:32:00,
2013-04-20 09:37:00,40.6,27.0,29.82,WNW,289,2.0,3.0,58,0.00,,,0.03,Wunderground v.1.15,2013-04-20 13:37:00,
2013-04-20 09:47:00,40.1,25.6,29.83,WSW,246,2.0,2.0,56,0.00,,,0.03,Wunderground v.1.15,2013-04-20 13:47:00,
2013-04-20 09:52:00,39.9,25.9,29.83,West,280,2.0,2.0,57,0.00,,,0.03,Wunderground v.1.15,2013-04-20 13:52:00,
2013-04-20 10:02:00,39.8,24.5,29.83,West,268,2.0,7.0,54,0.00,,,0.03,Wunderground v.1.15,2013-04-20 14:02:00,
2013-04-20 10:07:00,39.9,24.1,29.83,West,275,3.0,7.0,53,0.00,,,0.03,Wunderground v.1.15,2013-04-20 14:07:00,
2013-04-20 10:12:00,40.3,23.6,29.83,West,278,3.0,6.0,51,0.00,,,0.03,Wunderground v.1.15,2013-04-20 14:12:00,
2013-04-20 10:22:00,40.6,22.9,29.84,WNW,287,4.0,4.0,49,0.00,,,0.03,Wunderground v.1.15,2013-04-20 14:22:00,
2013-04-20 10:32:00,40.2,23.0,29.86,West,261,4.0,4.0,50,0.00,,,0.03,Wunderground v.1.15,2013-04-20 14:32:00,
2013-04-20 10:37:00,40.1,23.4,29.86,SSW,200,2.0,4.0,51,0.00,,,0.03,Wunderground v.1.15,2013-04-20 14:37:00,
2013-04-20 10:47:00,39.9,24.1,29.86,SSW,198,2.0,2.0,53,0.00,,,0.03,Wunderground v.1.15,2013-04-20 14:47:00,
2013-04-20 10:53:00,40.1,24.3,29.86,SSW,202,1.0,1.0,53,0.00,,,0.03,Wunderground v.1.15,2013-04-20 14:53:00,
2013-04-20 11:02:00,40.1,23.9,29.88,West,270,2.0,3.0,52,0.00,,,0.03,Wunderground v.1.15,2013-04-20 15:02:00,
2013-04-20 11:08:00,41.1,25.3,29.88,West,265,1.0,3.0,53,0.00,,,0.03,Wunderground v.1.15,2013-04-20 15:08:00,
2013-04-20 11:17:00,43.2,24.8,29.88,WSW,244,2.0,3.0,48,0.00,,,0.03,Wunderground v.1.15,2013-04-20 15:17:00,
2013-04-20 11:23:00,42.3,24.5,29.88,SW,236,2.0,2.0,49,0.00,,,0.03,Wunderground v.1.15,2013-04-20 15:23:00,
2013-04-20 11:32:00,41.1,23.4,29.89,West,275,3.0,3.0,49,0.00,,,0.03,Wunderground v.1.15,2013-04-20 15:32:00,
2013-04-20 11:37:00,41.5,23.7,29.89,WNW,282,2.0,4.0,49,0.00,,,0.03,Wunderground v.1.15,2013-04-20 15:37:00,
2013-04-20 11:47:00,42.3,24.0,29.90,SSW,210,3.0,6.0,48,0.00,,,0.03,Wunderground v.1.15,2013-04-20 15:47:00,
2013-04-20 11:52:00,41.9,21.5,29.90,WSW,253,4.0,6.0,44,0.00,,,0.03,Wunderground v.1.15,2013-04-20 15:52:00,
2013-04-20 12:02:00,40.8,21.6,29.91,West,270,4.0,4.0,46,0.00,,,0.03,Wunderground v.1.15,2013-04-20 16:02:00,
2013-04-20 12:07:00,40.9,21.7,29.91,WSW,247,3.0,11.0,46,0.00,,,0.03,Wunderground v.1.15,2013-04-20 16:07:00,
2013-04-20 12:17:00,42.2,20.7,29.92,WSW,257,4.0,4.0,42,0.00,,,0.03,Wunderground v.1.15,2013-04-20 16:17:00,
2013-04-20 12:22:00,41.6,20.7,29.92,West,267,4.0,10.0,43,0.00,,,0.03,Wunderground v.1.15,2013-04-20 16:22:00,
2013-04-20 12:32:00,40.6,21.9,29.93,WNW,294,4.0,6.0,47,0.00,,,0.03,Wunderground v.1.15,2013-04-20 16:32:00,
2013-04-20 12:37:00,40.2,22.5,29.93,West,281,4.0,6.0,49,0.00,,,0.03,Wunderground v.1.15,2013-04-20 16:37:00,
2013-04-20 12:47:00,39.6,22.5,29.95,WNW,285,5.0,5.0,50,0.00,,,0.03,Wunderground v.1.15,2013-04-20 16:47:00,
2013-04-20 12:52:00,39.6,22.9,29.95,West,281,3.0,3.0,51,0.00,,,0.03,Wunderground v.1.15,2013-04-20 16:52:00,
2013-04-20 13:02:00,39.9,23.2,29.96,NW,309,2.0,2.0,51,0.00,,,0.03,Wunderground v.1.15,2013-04-20 17:02:00,
2013-04-20 13:12:00,40.9,22.2,29.96,West,263,2.0,2.0,47,0.00,,,0.03,Wunderground v.1.15,2013-04-20 17:12:00,
2013-04-20 13:17:00,40.6,21.4,29.96,West,260,3.0,5.0,46,0.00,,,0.03,Wunderground v.1.15,2013-04-20 17:17:00,
2013-04-20 13:23:00,39.8,22.2,29.96,West,263,3.0,12.0,49,0.00,,,0.03,Wunderground v.1.15,2013-04-20 17:23:00,
2013-04-20 13:32:00,39.2,23.0,29.98,WNW,302,4.0,12.0,52,0.00,,,0.03,Wunderground v.1.15,2013-04-20 17:32:00,
2013-04-20 13:38:00,39.5,23.3,29.98,NW,306,3.0,4.0,52,0.00,,,0.03,Wunderground v.1.15,2013-04-20 17:38:00,
2013-04-20 13:47:00,39.3,21.2,29.99,WNW,292,5.0,6.0,48,0.00,,,0.03,Wunderground v.1.15,2013-04-20 17:47:00,
2013-04-20 13:53:00,39.6,21.5,29.99,WSW,258,3.0,6.0,48,0.00,,,0.03,Wunderground v.1.15,2013-04-20 17:53:00,
2013-04-20 14:02:00,39.6,21.0,29.99,West,280,4.0,10.0,47,0.00,,,0.03,Wunderground v.1.15,2013-04-20 18:02:00,
2013-04-20 14:08:00,40.6,20.9,29.99,West,271,2.0,10.0,45,0.00,,,0.03,Wunderground v.1.15,2013-04-20 18:08:00,
2013-04-20 14:17:00,40.3,20.1,30.00,West,268,4.0,5.0,44,0.00,,,0.03,Wunderground v.1.15,2013-04-20 18:17:00,
2013-04-20 14:23:00,40.5,20.3,30.00,West,264,4.0,4.0,44,0.00,,,0.03,Wunderground v.1.15,2013-04-20 18:23:00,
2013-04-20 14:32:00,39.9,20.8,30.01,NW,325,3.0,4.0,46,0.00,,,0.03,Wunderground v.1.15,2013-04-20 18:32:00,
2013-04-20 14:38:00,39.5,20.9,30.01,WNW,295,4.0,4.0,47,0.00,,,0.03,Wunderground v.1.15,2013-04-20 18:38:00,
2013-04-20 14:47:00,40.1,21.5,30.02,WNW,288,4.0,4.0,47,0.00,,,0.03,Wunderground v.1.15,2013-04-20 18:47:00,
2013-04-20 14:53:00,39.6,21.0,30.02,WNW,287,4.0,6.0,47,0.00,,,0.03,Wunderground v.1.15,2013-04-20 18:53:00,
2013-04-20 15:02:00,39.3,21.7,30.03,SSW,212,4.0,4.0,49,0.00,,,0.03,Wunderground v.1.15,2013-04-20 19:02:00,
2013-04-20 15:07:00,39.1,21.5,30.03,WNW,291,5.0,6.0,49,0.00,,,0.03,Wunderground v.1.15,2013-04-20 19:07:00,
2013-04-20 15:17:00,39.1,21.5,30.05,WNW,287,4.0,4.0,49,0.00,,,0.03,Wunderground v.1.15,2013-04-20 19:17:00,
2013-04-20 15:23:00,38.5,21.0,30.05,WNW,284,6.0,6.0,49,0.00,,,0.03,Wunderground v.1.15,2013-04-20 19:23:00,
2013-04-20 15:32:00,38.5,20.5,30.06,West,264,5.0,6.0,48,0.00,,,0.03,Wunderground v.1.15,2013-04-20 19:32:00,
2013-04-20 15:38:00,38.9,20.9,30.06,WSW,248,4.0,4.0,48,0.00,,,0.03,Wunderground v.1.15,2013-04-20 19:38:00,
2013-04-20 15:47:00,38.8,20.8,30.07,West,270,4.0,4.0,48,0.00,,,0.03,Wunderground v.1.15,2013-04-20 19:47:00,
2013-04-20 15:53:00,38.9,21.3,30.07,WNW,291,3.0,3.0,49,0.00,,,0.03,Wunderground v.1.15,2013-04-20 19:53:00,
2013-04-20 16:02:00,38.8,21.3,30.08,WNW,302,3.0,3.0,49,0.00,,,0.03,Wunderground v.1.15,2013-04-20 20:02:00,
2013-04-20 16:08:00,38.5,21.9,30.08,WNW,291,3.0,5.0,51,0.00,,,0.03,Wunderground v.1.15,2013-04-20 20:08:00,
2013-04-20 16:17:00,38.0,21.5,30.09,WNW,298,4.0,8.0,51,0.00,,,0.03,Wunderground v.1.15,2013-04-20 20:17:00,
2013-04-20 16:22:00,38.5,21.9,30.09,NW,316,5.0,5.0,51,0.00,,,0.03,Wunderground v.1.15,2013-04-20 20:22:00,
2013-04-20 16:32:00,38.2,20.7,30.10,NW,312,4.0,4.0,49,0.00,,,0.03,Wunderground v.1.15,2013-04-20 20:32:00,
2013-04-20 16:37:00,38.0,21.0,30.10,WSW,258,3.0,6.0,50,0.00,,,0.03,Wunderground v.1.15,2013-04-20 20:37:00,
2013-04-20 16:47:00,37.9,19.4,30.10,WNW,296,4.0,7.0,47,0.00,,,0.03,Wunderground v.1.15,2013-04-20 20:47:00,
2013-04-20 16:52:00,37.9,18.9,30.10,WNW,299,4.0,5.0,46,0.00,,,0.03,Wunderground v.1.15,2013-04-20 20:52:00,
2013-04-20 17:02:00,37.9,19.4,30.12,SW,234,4.0,4.0,47,0.00,,,0.03,Wunderground v.1.15,2013-04-20 21:02:00,
2013-04-20 17:12:00,38.2,19.2,30.12,WNW,282,5.0,5.0,46,0.00,,,0.03,Wunderground v.1.15,2013-04-20 21:12:00,
2013-04-20 17:22:00,37.6,18.2,30.13,WNW,296,4.0,4.0,45,0.00,,,0.03,Wunderground v.1.15,2013-04-20 21:22:00,
2013-04-20 17:32:00,37.6,18.2,30.14,NW,308,5.0,7.0,45,0.00,,,0.03,Wunderground v.1.15,2013-04-20 21:32:00,
2013-04-20 17:37:00,37.6,18.2,30.14,West,270,6.0,7.0,45,0.00,,,0.03,Wunderground v.1.15,2013-04-20 21:37:00,
2013-04-20 17:47:00,37.6,17.6,30.15,South,182,5.0,12.0,44,0.00,,,0.03,Wunderground v.1.15,2013-04-20 21:47:00,
2013-04-20 17:52:00,37.6,18.2,30.15,WNW,289,4.0,4.0,45,0.00,,,0.03,Wunderground v.1.15,2013-04-20 21:52:00,
2013-04-20 18:02:00,37.5,18.1,30.16,WNW,298,3.0,3.0,45,0.00,,,0.03,Wunderground v.1.15,2013-04-20 22:02:00,
2013-04-20 18:12:00,37.5,18.1,30.16,NW,315,3.0,10.0,45,0.00,,,0.03,Wunderground v.1.15,2013-04-20 22:12:00,
2013-04-20 18:22:00,37.2,18.3,30.17,WNW,299,3.0,3.0,46,0.00,,,0.03,Wunderground v.1.15,2013-04-20 22:22:00,
2013-04-20 18:32:00,37.5,18.6,30.18,West,270,4.0,4.0,46,0.00,,,0.03,Wunderground v.1.15,2013-04-20 22:32:00,
2013-04-20 18:37:00,37.6,18.2,30.18,WNW,298,4.0,10.0,45,0.00,,,0.03,Wunderground v.1.15,2013-04-20 22:37:00,
2013-04-20 18:47:00,37.2,16.7,30.19,WNW,292,4.0,4.0,43,0.00,,,0.03,Wunderground v.1.15,2013-04-20 22:47:00,
2013-04-20 18:52:00,37.5,17.5,30.19,WNW,294,3.0,5.0,44,0.00,,,0.03,Wunderground v.1.15,2013-04-20 22:52:00,
2013-04-20 19:02:00,37.0,16.5,30.20,WNW,295,6.0,6.0,43,0.00,,,0.03,Wunderground v.1.15,2013-04-20 23:02:00,
2013-04-20 19:12:00,36.9,17.5,30.20,WNW,288,2.0,2.0,45,0.00,,,0.03,Wunderground v.1.15,2013-04-20 23:12:00,
2013-04-20 19:22:00,36.6,17.7,30.21,WNW,301,3.0,3.0,46,0.00,,,0.03,Wunderground v.1.15,2013-04-20 23:22:00,
2013-04-20 19:32:00,36.3,17.5,30.21,WNW,284,4.0,5.0,46,0.00,,,0.03,Wunderground v.1.15,2013-04-20 23:32:00,
2013-04-20 19:37:00,36.0,17.7,30.21,WNW,298,5.0,5.0,47,0.00,,,0.03,Wunderground v.1.15,2013-04-20 23:37:00,
2013-04-20 19:47:00,35.9,18.1,30.23,West,278,2.0,4.0,48,0.00,,,0.03,Wunderground v.1.15,2013-04-20 23:47:00,
2013-04-20 19:52:00,35.9,18.6,30.23,West,275,2.0,2.0,49,0.00,,,0.03,Wunderground v.1.15,2013-04-20 23:52:00,
2013-04-20 20:02:00,35.8,18.5,30.24,NW,313,2.0,3.0,49,0.00,,,0.03,Wunderground v.1.15,2013-04-21 00:02:00,
2013-04-20 20:12:00,35.6,19.2,30.24,WNW,289,1.0,1.0,51,0.00,,,0.03,Wunderground v.1.15,2013-04-21 00:12:00,
2013-04-20 20:17:00,35.5,18.7,30.25,WNW,301,1.0,1.0,50,0.00,,,0.03,Wunderground v.1.15,2013-04-21 00:17:00,
2013-04-20 20:22:00,35.5,18.7,30.25,West,264,2.0,2.0,50,0.00,,,0.03,Wunderground v.1.15,2013-04-21 00:22:00,
2013-04-20 20:32:00,35.3,19.0,30.27,West,277,1.0,1.0,51,0.00,,,0.03,Wunderground v.1.15,2013-04-21 00:32:00,
2013-04-20 20:37:00,35.3,19.0,30.27,WNW,284,1.0,1.0,51,0.00,,,0.03,Wunderground v.1.15,2013-04-21 00:37:00,
2013-04-20 20:47:00,35.3,19.0,30.28,West,280,1.0,1.0,51,0.00,,,0.03,Wunderground v.1.15,2013-04-21 00:47:00,
2013-04-20 20:52:00,35.2,19.3,30.28,West,271,1.0,1.0,52,0.00,,,0.03,Wunderground v.1.15,2013-04-21 00:52:00,
2013-04-20 21:02:00,35.0,19.1,30.29,WNW,284,1.0,1.0,52,0.00,,,0.03,Wunderground v.1.15,2013-04-21 01:02:00,
2013-04-20 21:12:00,34.9,19.0,30.29,WSW,257,1.0,1.0,52,0.00,,,0.03,Wunderground v.1.15,2013-04-21 01:12:00,
2013-04-20 21:17:00,34.9,19.5,30.30,NW,308,1.0,1.0,53,0.00,,,0.03,Wunderground v.1.15,2013-04-21 01:17:00,
2013-04-20 21:22:00,34.7,19.3,30.30,NW,308,0.0,0.0,53,0.00,,,0.03,Wunderground v.1.15,2013-04-21 01:22:00,
2013-04-20 21:32:00,34.6,19.6,30.31,West,261,0.0,1.0,54,0.00,,,0.03,Wunderground v.1.15,2013-04-21 01:32:00,
2013-04-20 21:37:00,34.6,19.6,30.31,West,261,0.0,1.0,54,0.00,,,0.03,Wunderground v.1.15,2013-04-21 01:37:00,
2013-04-20 21:47:00,34.4,19.9,30.32,West,261,0.0,0.0,55,0.00,,,0.03,Wunderground v.1.15,2013-04-21 01:47:00,
2013-04-20 21:52:00,34.4,19.9,30.32,West,261,0.0,0.0,55,0.00,,,0.03,Wunderground v.1.15,2013-04-21 01:52:00,
2013-04-20 22:02:00,34.4,20.3,30.33,West,261,0.0,0.0,56,0.00,,,0.03,Wunderground v.1.15,2013-04-21 02:02:00,
2013-04-20 22:07:00,34.4,20.3,30.33,West,261,0.0,0.0,56,0.00,,,0.03,Wunderground v.1.15,2013-04-21 02:07:00,
2013-04-20 22:17:00,34.6,19.6,30.33,West,261,0.0,0.0,54,0.00,,,0.03,Wunderground v.1.15,2013-04-21 02:17:00,
2013-04-20 22:22:00,34.6,19.6,30.33,West,261,0.0,0.0,54,0.00,,,0.03,Wunderground v.1.15,2013-04-21 02:22:00,
2013-04-20 22:32:00,34.6,19.6,30.34,West,263,0.0,0.0,54,0.00,,,0.03,Wunderground v.1.15,2013-04-21 02:32:00,
2013-04-20 22:37:00,34.4,19.5,30.34,West,263,0.0,1.0,54,0.00,,,0.03,Wunderground v.1.15,2013-04-21 02:37:00,
2013-04-20 22:47:00,34.1,19.6,30.34,West,270,0.0,0.0,55,0.00,,,0.03,Wunderground v.1.15,2013-04-21 02:47:00,
2013-04-20 22:52:00,34.1,19.6,30.34,West,270,0.0,0.0,55,0.00,,,0.03,Wunderground v.1.15,2013-04-21 02:52:00,
2013-04-20 23:02:00,34.1,19.6,30.34,West,270,0.0,0.0,55,0.00,,,0.03,Wunderground v.1.15,2013-04-21 03:02:00,
2013-04-20 23:07:00,34.1,19.6,30.34,West,270,0.0,0.0,55,0.00,,,0.03,Wunderground v.1.15,2013-04-21 03:07:00,
2013-04-20 23:12:00,34.0,19.5,30.34,West,270,0.0,0.0,55,0.00,,,0.03,Wunderground v.1.15,2013-04-21 03:12:00,
2013-04-20 23:22:00,33.8,19.7,30.35,West,270,0.0,0.0,56,0.00,,,0.03,Wunderground v.1.15,2013-04-21 03:22:00,
2013-04-20 23:32:00,33.8,19.7,30.36,West,270,0.0,0.0,56,0.00,,,0.03,Wunderground v.1.15,2013-04-21 03:32:00,
2013-04-20 23:37:00,33.5,19.5,30.36,West,270,0.0,0.0,56,0.00,,,0.03,Wunderground v.1.15,2013-04-21 03:37:00,
2013-04-20 23:47:00,33.4,19.4,30.36,West,272,0.0,0.0,56,0.00,,,0.03,Wunderground v.1.15,2013-04-21 03:47:00,
2013-04-20 23:52:00,33.1,19.1,30.36,West,272,0.0,0.0,56,0.00,,,0.03,Wunderground v.1.15,2013-04-21 03:52:00,